全部
Vamdrup Airport (Kolding) EKVD 天气
|
Kolding (EKVD)
晴天
静风 |
|
6 °C |
EKVD终端机场天气预报
| Date | Time (CEST) | Flight Rules | Wind Dir. | Speed | Type | Height AGL (ft) | Visibility | Remarks | ||||||
|---|---|---|---|---|---|---|---|---|---|---|---|---|---|---|
EKVD近期METAR历史数据
| Date | Time (CEST) | Flight Rules | Wind Dir. | Speed | Type | Height AGL (ft) | Visibility | Temp (°C) | Temp (°F) | Dew Point (°C) | Dew Point (°F) | Rel. Humid. | Pressure | Density Altitude | Remarks |
|---|---|---|---|---|---|---|---|---|---|---|---|---|---|---|---|
| 05-五月 | 07:20 | n/a | 270° | 1 kt | Missing | 6° | 42° | 5° | 41° | 93% | 1013 mb | -931 ft | |||
| 05-五月 | 06:50 | n/a | Calm | Missing | 5° | 41° | 4° | 39° | 93% | 1012 mb | -1,021 ft | ||||
| 05-五月 | 06:20 | n/a | Calm | Missing | 3° | 37° | 3° | 37° | 100% | 1012 mb | -1,261 ft | ||||
| 05-五月 | 05:50 | n/a | 330° | 4 kt | Missing | 3° | 37° | 2° | 35° | 93% | 1012 mb | -1,261 ft | |||
| 05-五月 | 05:20 | n/a | 300° | 3 kt | Missing | 4° | 39° | 3° | 37° | 93% | 1013 mb | -1,171 ft | |||
| 05-五月 | 04:50 | n/a | 290° | 1 kt | Missing | 4° | 39° | 3° | 37° | 93% | 1013 mb | -1,171 ft | |||
| 05-五月 | 04:20 | n/a | 300° | 3 kt | Missing | 4° | 39° | 3° | 37° | 93% | 1013 mb | -1,171 ft | |||
| 05-五月 | 03:50 | n/a | 300° | 3 kt | Missing | 4° | 39° | 4° | 39° | 100% | 1013 mb | -1,171 ft | |||
| 05-五月 | 03:20 | n/a | 300° | 4 kt | Missing | 4° | 39° | 4° | 39° | 100% | 1013 mb | -1,171 ft | |||
| 05-五月 | 02:50 | n/a | 300° | 3 kt | Missing | 5° | 41° | 4° | 39° | 93% | 1013 mb | -1,051 ft | |||
| 05-五月 | 02:20 | n/a | Calm | Missing | 5° | 41° | 4° | 39° | 93% | 1013 mb | -1,051 ft | ||||
| 05-五月 | 01:50 | n/a | 300° | 4 kt | Missing | 5° | 41° | 4° | 39° | 93% | 1013 mb | -1,051 ft | |||
| 05-五月 | 01:20 | n/a | 280° | 4 kt | Missing | 5° | 41° | 4° | 39° | 93% | 1013 mb | -1,051 ft | |||
| 05-五月 | 00:50 | n/a | 280° | 4 kt | Missing | 6° | 42° | 4° | 39° | 87% | 1013 mb | -931 ft | |||
| 05-五月 | 00:20 | n/a | 290° | 4 kt | Missing | 6° | 42° | 4° | 39° | 87% | 1013 mb | -931 ft | |||
| 04-五月 | 23:50 | n/a | 290° | 5 kt | Missing | 6° | 42° | 4° | 39° | 87% | 1013 mb | -931 ft | |||
| 04-五月 | 23:20 | n/a | 300° | 6 kt | Missing | 7° | 44° | 4° | 39° | 81% | 1013 mb | -811 ft | |||
| 04-五月 | 22:50 | n/a | 290° | 5 kt | Missing | 7° | 44° | 4° | 39° | 81% | 1013 mb | -811 ft | |||
| 04-五月 | 22:20 | n/a | 290° | 5 kt | Missing | 7° | 44° | 4° | 39° | 81% | 1013 mb | -811 ft | |||
| 04-五月 | 21:50 | n/a | 300° | 6 kt | Missing | 8° | 46° | 4° | 39° | 76% | 1013 mb | -691 ft | |||
| 04-五月 | 21:20 | n/a | 310° | 6 kt | Missing | 8° | 46° | 4° | 39° | 76% | 1013 mb | -691 ft | |||
| 04-五月 | 20:50 | n/a | 310° | 9 kt | Missing | 9° | 48° | 4° | 39° | 71% | 1013 mb | -571 ft | |||
| 04-五月 | 20:20 | n/a | 310° | 10 kt | Missing | 10° | 50° | 4° | 39° | 66% | 1013 mb | -451 ft | |||
| 04-五月 | 19:50 | n/a | 290° | 9 kt | Missing | 11° | 51° | 4° | 39° | 62% | 1013 mb | -331 ft |
登录
| 您的浏览器不支持. 升级您的浏览器 |
